createdAt,value
2023-02-18T00:05:20.794Z,5.74
2023-02-18T00:12:10.656Z,5.78
2023-02-18T00:19:07.107Z,5.81
2023-02-18T00:26:11.796Z,5.85
2023-02-18T00:33:04.732Z,5.84
2023-02-18T00:39:57.382Z,5.78
2023-02-18T00:46:53.048Z,5.76
2023-02-18T00:53:46.457Z,5.75
2023-02-18T01:00:40.251Z,5.78
2023-02-18T01:07:33.989Z,5.80
2023-02-18T01:14:28.787Z,5.83
2023-02-18T01:21:20.511Z,5.83
2023-02-18T01:28:16.172Z,5.83
2023-02-18T01:35:08.781Z,5.85
2023-02-18T01:42:02.469Z,5.85
2023-02-18T01:49:02.185Z,5.87
2023-02-18T01:55:56.846Z,5.83
2023-02-18T02:02:52.545Z,5.80
2023-02-18T02:09:46.265Z,5.78
2023-02-18T02:17:10.076Z,5.76
2023-02-18T02:24:18.795Z,5.73
2023-02-18T02:31:38.460Z,5.72
2023-02-18T02:38:44.244Z,5.71
2023-02-18T02:46:12.379Z,5.68
2023-02-18T02:53:16.540Z,5.65
2023-02-18T03:00:14.496Z,5.62
2023-02-18T03:07:29.210Z,5.62
2023-02-18T03:14:55.025Z,5.59
2023-02-18T03:22:21.751Z,5.56
2023-02-18T03:29:11.016Z,5.54
2023-02-18T03:36:06.618Z,5.49
2023-02-18T03:43:02.980Z,5.42
2023-02-18T03:49:51.656Z,5.32
2023-02-18T03:56:46.903Z,5.27
2023-02-18T04:03:35.700Z,5.16
2023-02-18T04:10:26.822Z,5.08
2023-02-18T04:17:22.329Z,5.02
2023-02-18T04:24:15.960Z,5.01
2023-02-18T04:31:08.606Z,5.04
2023-02-18T04:37:59.370Z,5.05
2023-02-18T04:44:53.757Z,5.08
2023-02-18T04:51:45.678Z,5.10
2023-02-18T04:58:36.359Z,5.09
2023-02-18T05:05:26.972Z,5.10
2023-02-18T05:12:23.450Z,5.07
2023-02-18T05:19:21.044Z,5.00
2023-02-18T05:26:13.008Z,4.96
2023-02-18T05:33:05.719Z,4.90
2023-02-18T05:39:55.052Z,4.83
2023-02-18T05:46:51.063Z,4.78
2023-02-18T05:53:40.800Z,4.71
2023-02-18T06:00:33.445Z,4.65
2023-02-18T06:07:28.691Z,4.63
2023-02-18T06:14:23.814Z,4.63
2023-02-18T06:21:18.452Z,4.65
2023-02-18T06:28:15.163Z,4.64
2023-02-18T06:35:08.907Z,4.68
2023-02-18T06:42:02.065Z,4.74
2023-02-18T06:48:58.214Z,4.78
2023-02-18T06:55:48.901Z,4.82
2023-02-18T07:02:43.584Z,4.89
2023-02-18T07:09:41.844Z,5.01
2023-02-18T07:16:43.966Z,5.13
2023-02-18T07:23:37.238Z,5.19
2023-02-18T07:30:35.356Z,5.25
2023-02-18T07:37:31.012Z,5.34
2023-02-18T07:44:26.686Z,5.37
2023-02-18T07:51:20.179Z,5.41
2023-02-18T07:58:08.245Z,5.41
2023-02-18T08:04:58.729Z,5.46
2023-02-18T08:11:55.391Z,5.49
2023-02-18T08:18:48.116Z,5.57
2023-02-18T08:25:43.727Z,5.66
2023-02-18T08:32:40.414Z,5.76
2023-02-18T08:39:39.808Z,5.77
2023-02-18T08:46:36.048Z,5.82
2023-02-18T08:53:33.589Z,5.82
2023-02-18T09:00:27.044Z,5.80
2023-02-18T09:07:21.899Z,5.80
2023-02-18T09:14:15.625Z,5.86
2023-02-18T09:21:09.490Z,5.92
2023-02-18T09:28:01.947Z,6.01
2023-02-18T09:34:53.210Z,6.23
2023-02-18T09:42:00.951Z,6.32
2023-02-18T09:48:52.026Z,6.23
2023-02-18T09:55:43.694Z,6.12
2023-02-18T10:02:36.882Z,6.06
2023-02-18T10:09:37.020Z,5.93
2023-02-18T10:16:30.824Z,5.87
2023-02-18T10:23:21.382Z,5.94
2023-02-18T10:30:38.961Z,6.05
2023-02-18T10:38:04.544Z,6.14
2023-02-18T10:45:19.118Z,6.18
2023-02-18T10:52:11.352Z,6.37
2023-02-18T10:59:29.779Z,6.57
2023-02-18T11:06:35.449Z,6.67
2023-02-18T11:13:38.736Z,6.77
2023-02-18T11:20:29.173Z,6.74
2023-02-18T11:27:36.134Z,6.62
2023-02-18T11:34:35.736Z,6.50
2023-02-18T11:41:42.992Z,6.47
2023-02-18T11:48:39.150Z,6.46
2023-02-18T11:55:33.834Z,6.34
2023-02-18T12:02:41.306Z,6.29
2023-02-18T12:09:47.226Z,6.30
2023-02-18T12:16:38.155Z,6.32
2023-02-18T12:23:56.712Z,6.34
2023-02-18T12:31:26.193Z,6.31
2023-02-18T12:38:37.292Z,6.29
2023-02-18T12:45:51.106Z,6.36
2023-02-18T12:53:21.882Z,6.40
2023-02-18T13:00:45.610Z,6.39
2023-02-18T13:07:51.322Z,6.38
2023-02-18T13:15:04.315Z,6.34
2023-02-18T13:21:59.378Z,6.25
2023-02-18T13:29:16.616Z,6.22
2023-02-18T13:36:35.392Z,6.20
2023-02-18T13:43:40.107Z,6.20
2023-02-18T13:50:37.540Z,6.18
2023-02-18T13:57:31.035Z,6.13
2023-02-18T14:04:40.237Z,6.09
2023-02-18T14:11:39.928Z,6.03
2023-02-18T14:18:37.087Z,5.94
2023-02-18T14:25:25.208Z,5.89
2023-02-18T14:32:18.982Z,5.84
2023-02-18T14:39:59.536Z,5.77
2023-02-18T14:47:38.660Z,5.71
2023-02-18T14:54:33.911Z,5.64
2023-02-18T15:01:37.648Z,5.58
2023-02-18T15:08:32.733Z,5.53
2023-02-18T15:15:29.415Z,5.48
2023-02-18T15:22:26.092Z,5.43
2023-02-18T15:29:23.803Z,5.37
2023-02-18T15:36:30.163Z,5.29
2023-02-18T15:43:28.282Z,5.21
2023-02-18T15:50:41.020Z,5.16
2023-02-18T15:57:36.690Z,5.11
2023-02-18T16:04:39.034Z,5.07
2023-02-18T16:11:34.087Z,5.02
2023-02-18T16:18:44.403Z,5.00
2023-02-18T16:26:00.651Z,4.98
2023-02-18T16:32:55.829Z,4.94
2023-02-18T16:39:50.007Z,4.91
2023-02-18T16:46:43.641Z,4.88
2023-02-18T16:53:37.346Z,4.84
2023-02-18T17:00:30.026Z,4.80
2023-02-18T17:07:25.467Z,4.74
2023-02-18T17:14:24.367Z,4.69
2023-02-18T17:21:28.107Z,4.64
2023-02-18T17:28:21.792Z,4.56
2023-02-18T17:35:19.466Z,4.46
2023-02-18T17:42:14.895Z,4.35
2023-02-18T17:49:09.807Z,4.23
2023-02-18T17:56:05.478Z,4.12
2023-02-18T18:03:00.199Z,3.98
2023-02-18T18:09:50.986Z,3.87
2023-02-18T18:16:42.547Z,3.78
2023-02-18T18:23:40.213Z,3.69
2023-02-18T18:30:39.062Z,3.62
2023-02-18T18:37:30.334Z,3.54
2023-02-18T18:44:22.252Z,3.47
2023-02-18T18:51:23.985Z,3.44
2023-02-18T18:58:17.608Z,3.40
2023-02-18T19:05:07.242Z,3.38
2023-02-18T19:12:01.924Z,3.34
2023-02-18T19:18:55.631Z,3.33
2023-02-18T19:25:48.350Z,3.31
2023-02-18T19:32:41.547Z,3.26
2023-02-18T19:39:37.724Z,3.25
2023-02-18T19:46:31.000Z,3.23
2023-02-18T19:53:25.586Z,3.21
2023-02-18T20:00:20.763Z,3.19
2023-02-18T20:07:16.252Z,3.14
2023-02-18T20:14:09.158Z,3.10
2023-02-18T20:21:04.430Z,3.07
2023-02-18T20:28:01.109Z,3.01
2023-02-18T20:34:56.185Z,2.96
2023-02-18T20:41:52.514Z,2.93
2023-02-18T20:48:53.696Z,2.90
2023-02-18T20:55:51.013Z,2.87
2023-02-18T21:02:49.152Z,2.86
2023-02-18T21:09:44.828Z,2.83
2023-02-18T21:16:43.210Z,2.81
2023-02-18T21:23:35.206Z,2.79
2023-02-18T21:30:27.847Z,2.81
2023-02-18T21:37:21.249Z,2.83
2023-02-18T21:44:17.187Z,2.90
2023-02-18T21:51:11.869Z,2.96
2023-02-18T21:58:09.299Z,2.98
2023-02-18T22:05:02.889Z,2.97
2023-02-18T22:11:56.969Z,2.93
2023-02-18T22:18:48.626Z,2.89
2023-02-18T22:25:39.085Z,2.83
2023-02-18T22:32:35.772Z,2.78
2023-02-18T22:39:25.174Z,2.71
2023-02-18T22:46:21.928Z,2.65
2023-02-18T22:53:18.520Z,2.60
2023-02-18T23:00:16.337Z,2.56
2023-02-18T23:07:08.345Z,2.54
2023-02-18T23:14:18.133Z,2.53
2023-02-18T23:21:27.810Z,2.50
2023-02-18T23:28:20.405Z,2.45
2023-02-18T23:35:15.121Z,2.40
2023-02-18T23:42:09.791Z,2.33
2023-02-18T23:49:08.112Z,2.27
2023-02-18T23:56:23.273Z,2.19
